createdAt,value
2023-08-11T00:04:32.757Z,100728.92
2023-08-11T00:09:40.573Z,100732.13
2023-08-11T00:14:47.609Z,100730.31
2023-08-11T00:19:54.848Z,100740.11
2023-08-11T00:25:01.829Z,100739.25
2023-08-11T00:30:10.628Z,100736.59
2023-08-11T00:35:17.625Z,100740.46
2023-08-11T00:40:25.000Z,100749.34
2023-08-11T00:45:32.142Z,100747.95
2023-08-11T00:50:39.631Z,100747.20
2023-08-11T00:55:46.802Z,100744.20
2023-08-11T01:00:55.215Z,100746.36
2023-08-11T01:06:14.478Z,100743.85
2023-08-11T01:11:30.908Z,100741.73
2023-08-11T01:16:38.858Z,100742.02
2023-08-11T01:21:47.507Z,100739.38
2023-08-11T01:26:55.015Z,100736.71
2023-08-11T01:32:02.079Z,100737.15
2023-08-11T01:37:09.598Z,100731.23
2023-08-11T01:42:17.494Z,100726.51
2023-08-11T01:47:25.324Z,100723.67
2023-08-11T01:52:32.773Z,100726.55
2023-08-11T01:57:52.036Z,100733.62
2023-08-11T02:03:04.051Z,100736.36
2023-08-11T02:08:12.282Z,100739.91
2023-08-11T02:13:19.941Z,100744.12
2023-08-11T02:18:27.083Z,100738.38
2023-08-11T02:23:34.179Z,100732.63
2023-08-11T02:28:41.069Z,100739.02
2023-08-11T02:33:48.807Z,100741.66
2023-08-11T02:38:55.639Z,100740.54
2023-08-11T02:44:03.401Z,100742.64
2023-08-11T02:49:10.426Z,100747.85
2023-08-11T02:54:17.324Z,100746.17
2023-08-11T02:59:24.217Z,100748.84
2023-08-11T03:04:31.829Z,100744.31
2023-08-11T03:09:39.089Z,100748.16
2023-08-11T03:14:46.136Z,100745.98
2023-08-11T03:19:53.288Z,100744.47
2023-08-11T03:25:01.670Z,100748.27
2023-08-11T03:30:12.000Z,100748.36
2023-08-11T03:35:19.870Z,100749.83
2023-08-11T03:40:28.379Z,100755.25
2023-08-11T03:45:37.032Z,100749.86
2023-08-11T03:50:48.121Z,100754.55
2023-08-11T03:55:55.624Z,100752.53
2023-08-11T04:01:03.479Z,100752.05
2023-08-11T04:06:10.936Z,100754.48
2023-08-11T04:11:18.072Z,100764.91
2023-08-11T04:16:25.552Z,100763.70
2023-08-11T04:21:32.765Z,100765.19
2023-08-11T04:26:39.698Z,100765.43
2023-08-11T04:31:47.640Z,100766.79
2023-08-11T04:36:56.625Z,100767.20
2023-08-11T04:42:03.618Z,100779.20
2023-08-11T04:47:11.046Z,100783.36
2023-08-11T04:52:19.508Z,100782.30
2023-08-11T04:57:27.052Z,100790.04
2023-08-11T05:02:34.173Z,100793.10
2023-08-11T05:07:41.907Z,100780.87
2023-08-11T05:12:50.104Z,100785.20
2023-08-11T05:17:57.981Z,100786.41
2023-08-11T05:23:05.722Z,100796.08
2023-08-11T05:28:12.696Z,100791.33
2023-08-11T05:33:21.994Z,100791.21
2023-08-11T05:38:29.019Z,100790.88
2023-08-11T05:43:37.580Z,100793.71
2023-08-11T05:48:49.250Z,100792.20
2023-08-11T05:53:56.172Z,100793.39
2023-08-11T05:59:03.066Z,100789.97
2023-08-11T06:04:10.164Z,100786.48
2023-08-11T06:09:17.253Z,100787.77
2023-08-11T06:14:24.266Z,100786.08
2023-08-11T06:19:31.471Z,100785.58
2023-08-11T06:24:38.342Z,100784.88
2023-08-11T06:29:45.230Z,100790.98
2023-08-11T06:34:52.342Z,100791.88
2023-08-11T06:39:59.570Z,100799.85
2023-08-11T06:45:07.873Z,100808.98
2023-08-11T06:50:14.894Z,100812.38
2023-08-11T06:55:22.474Z,100809.66
2023-08-11T07:00:29.501Z,100809.63
2023-08-11T07:05:36.333Z,100809.55
2023-08-11T07:10:43.310Z,100811.56
2023-08-11T07:15:50.235Z,100813.45
2023-08-11T07:20:58.512Z,100813.15
2023-08-11T07:26:05.751Z,100814.21
2023-08-11T07:31:12.763Z,100808.54
2023-08-11T07:36:19.662Z,100810.41
2023-08-11T07:41:26.770Z,100818.82
2023-08-11T07:46:33.701Z,100827.67
2023-08-11T07:51:42.568Z,100825.37
2023-08-11T07:56:49.868Z,100828.35
2023-08-11T08:01:57.209Z,100831.04
2023-08-11T08:07:04.327Z,100831.70
2023-08-11T08:12:11.306Z,100833.20
2023-08-11T08:17:18.222Z,100829.39
2023-08-11T08:22:26.034Z,100830.89
2023-08-11T08:27:33.494Z,100825.52
2023-08-11T08:32:41.548Z,100827.24
2023-08-11T08:37:48.433Z,100825.57
2023-08-11T08:42:55.684Z,100825.03
2023-08-11T08:48:07.684Z,100823.92
2023-08-11T08:53:14.793Z,100827.87
2023-08-11T08:58:21.651Z,100827.59
2023-08-11T09:03:28.912Z,100828.27
2023-08-11T09:08:40.063Z,100827.80
2023-08-11T09:13:48.364Z,100820.23
2023-08-11T09:18:56.111Z,100819.77
2023-08-11T09:24:05.763Z,100816.42
2023-08-11T09:29:13.689Z,100813.66
2023-08-11T09:34:21.354Z,100809.91
2023-08-11T09:39:31.284Z,100813.12
2023-08-11T09:44:39.463Z,100818.18
2023-08-11T09:49:46.502Z,100819.14
2023-08-11T09:54:56.717Z,100822.46
2023-08-11T10:00:05.415Z,100827.83
2023-08-11T10:05:12.958Z,100823.23
2023-08-11T10:10:22.315Z,100821.98
2023-08-11T10:15:32.581Z,100818.89
2023-08-11T10:20:42.845Z,100814.09
2023-08-11T10:25:51.360Z,100815.94
2023-08-11T10:31:06.248Z,100813.08
2023-08-11T10:36:17.931Z,100812.39
2023-08-11T10:41:25.714Z,100809.54
2023-08-11T10:46:34.340Z,100809.05
2023-08-11T10:51:45.517Z,100799.89
2023-08-11T10:56:55.883Z,100802.90
2023-08-11T11:02:03.906Z,100803.06
2023-08-11T11:07:10.933Z,100800.71
2023-08-11T11:12:23.032Z,100795.95
2023-08-11T11:17:31.074Z,100794.61
2023-08-11T11:22:48.188Z,100796.76
2023-08-11T11:28:07.440Z,100800.82
2023-08-11T11:33:17.392Z,100802.76
2023-08-11T11:38:33.192Z,100800.52
2023-08-11T11:43:45.932Z,100799.87
2023-08-11T11:48:55.167Z,100798.30
2023-08-11T11:54:07.354Z,100787.45
2023-08-11T11:59:15.544Z,100795.11
2023-08-11T12:04:22.681Z,100794.50
2023-08-11T12:09:30.715Z,100793.49
2023-08-11T12:14:38.904Z,100793.33
2023-08-11T12:19:47.874Z,100800.81
2023-08-11T12:24:54.909Z,100801.52
2023-08-11T12:30:01.954Z,100801.94
2023-08-11T12:35:12.527Z,100802.27
2023-08-11T12:40:20.091Z,100806.35
2023-08-11T12:45:27.130Z,100811.45
2023-08-11T12:50:34.143Z,100811.84
2023-08-11T12:55:40.996Z,100811.89
2023-08-11T13:00:47.908Z,100809.18
2023-08-11T13:05:54.931Z,100817.36
2023-08-11T13:11:01.930Z,100813.34
2023-08-11T13:16:09.707Z,100810.77
2023-08-11T13:21:18.207Z,100802.20
2023-08-11T13:26:29.611Z,100796.15
2023-08-11T13:31:37.242Z,100798.52
2023-08-11T13:36:43.777Z,100794.20
2023-08-11T13:41:51.065Z,100795.73
2023-08-11T13:46:59.318Z,100801.55
2023-08-11T13:52:07.701Z,100803.61
2023-08-11T13:57:15.040Z,100796.77
2023-08-11T14:02:22.520Z,100790.77
2023-08-11T14:07:36.044Z,100783.30
2023-08-11T14:12:43.663Z,100787.88
2023-08-11T14:17:55.221Z,100786.15
2023-08-11T14:23:04.437Z,100786.69
2023-08-11T14:28:11.496Z,100778.16
2023-08-11T14:33:18.576Z,100772.74
2023-08-11T14:38:27.135Z,100769.25
2023-08-11T14:43:34.135Z,100769.44
2023-08-11T14:48:41.080Z,100768.66
2023-08-11T14:53:48.061Z,100762.45
2023-08-11T14:58:55.211Z,100758.90
2023-08-11T15:04:02.077Z,100764.83
2023-08-11T15:09:09.551Z,100764.76
2023-08-11T15:14:14.855Z,100764.02
2023-08-11T15:19:21.889Z,100759.23
2023-08-11T15:24:28.702Z,100757.44
2023-08-11T15:29:35.541Z,100756.89
2023-08-11T15:34:42.364Z,100751.98
2023-08-11T15:39:49.356Z,100751.61
2023-08-11T15:44:56.222Z,100755.41
2023-08-11T15:50:03.063Z,100756.52
2023-08-11T15:55:10.669Z,100760.09
2023-08-11T16:00:19.300Z,100756.36
2023-08-11T16:05:26.394Z,100754.20
2023-08-11T16:10:37.779Z,100749.33
2023-08-11T16:15:44.801Z,100757.23
2023-08-11T16:20:50.773Z,100751.20
2023-08-11T16:25:58.347Z,100741.10
2023-08-11T16:31:06.523Z,100748.73
2023-08-11T16:36:13.708Z,100748.84
2023-08-11T16:41:29.366Z,100747.80
2023-08-11T16:46:36.773Z,100742.58
2023-08-11T16:51:44.568Z,100743.83
2023-08-11T16:56:52.495Z,100745.46
2023-08-11T17:01:59.913Z,100749.24
2023-08-11T17:07:07.249Z,100746.27
2023-08-11T17:12:14.570Z,100745.64
2023-08-11T17:17:21.966Z,100742.39
2023-08-11T17:22:28.960Z,100743.39
2023-08-11T17:27:35.879Z,100745.11
2023-08-11T17:32:43.934Z,100744.77
2023-08-11T17:37:51.009Z,100749.81
2023-08-11T17:42:58.114Z,100754.29
2023-08-11T17:48:05.526Z,100755.84
2023-08-11T17:53:12.530Z,100755.81
2023-08-11T17:58:19.488Z,100761.25
2023-08-11T18:03:26.512Z,100760.96
2023-08-11T18:08:33.622Z,100765.48
2023-08-11T18:13:41.693Z,100763.66
2023-08-11T18:18:48.651Z,100771.81
2023-08-11T18:23:56.018Z,100773.84
2023-08-11T18:29:12.301Z,100780.89
2023-08-11T18:34:20.462Z,100785.14
2023-08-11T18:39:31.653Z,100790.85
2023-08-11T18:44:42.610Z,100798.95
2023-08-11T18:49:52.017Z,100798.95
2023-08-11T18:55:01.622Z,100804.60
2023-08-11T19:00:11.213Z,100813.19
2023-08-11T19:05:19.791Z,100817.97
2023-08-11T19:10:29.320Z,100825.85
2023-08-11T19:15:42.580Z,100828.00
2023-08-11T19:20:50.741Z,100828.32
2023-08-11T19:25:58.120Z,100825.64
2023-08-11T19:31:18.971Z,100831.55
2023-08-11T19:36:26.757Z,100835.77
2023-08-11T19:41:34.314Z,100834.93
2023-08-11T19:46:41.638Z,100832.14
2023-08-11T19:51:50.249Z,100836.44
2023-08-11T19:57:01.229Z,100834.01
2023-08-11T20:02:09.183Z,100838.97
2023-08-11T20:07:18.855Z,100831.13
2023-08-11T20:12:27.147Z,100827.10
2023-08-11T20:17:37.192Z,100827.44
2023-08-11T20:22:44.967Z,100820.05
2023-08-11T20:27:53.617Z,100819.17
2023-08-11T20:33:02.184Z,100815.42
2023-08-11T20:38:11.337Z,100809.27
2023-08-11T20:43:20.114Z,100810.36
2023-08-11T20:48:28.376Z,100810.77
2023-08-11T20:53:36.862Z,100802.02
2023-08-11T20:58:47.009Z,100806.04
2023-08-11T21:03:54.591Z,100806.48
2023-08-11T21:09:02.666Z,100813.28
2023-08-11T21:14:15.098Z,100816.83
2023-08-11T21:19:23.542Z,100823.48
2023-08-11T21:24:30.834Z,100817.31
2023-08-11T21:29:39.385Z,100817.08
2023-08-11T21:34:47.875Z,100822.30
2023-08-11T21:39:54.978Z,100817.91
2023-08-11T21:45:01.888Z,100818.09
2023-08-11T21:50:11.738Z,100817.83
2023-08-11T21:55:21.704Z,100811.30
2023-08-11T22:00:32.769Z,100812.08
2023-08-11T22:05:45.769Z,100813.31
2023-08-11T22:10:53.189Z,100809.81
2023-08-11T22:16:00.319Z,100806.16
2023-08-11T22:21:07.486Z,100800.31
2023-08-11T22:26:18.277Z,100800.84
2023-08-11T22:31:25.977Z,100807.49
2023-08-11T22:36:32.787Z,100815.48
2023-08-11T22:41:39.723Z,100820.14
2023-08-11T22:46:46.599Z,100816.75
2023-08-11T22:51:53.474Z,100814.80
2023-08-11T22:57:00.306Z,100814.84
2023-08-11T23:02:07.410Z,100813.38
2023-08-11T23:07:14.930Z,100816.21
2023-08-11T23:12:21.865Z,100814.73
2023-08-11T23:17:33.514Z,100816.77
2023-08-11T23:22:40.640Z,100820.42
2023-08-11T23:27:47.819Z,100820.91
2023-08-11T23:32:54.797Z,100822.02
2023-08-11T23:38:01.855Z,100826.91
2023-08-11T23:43:08.791Z,100828.48
2023-08-11T23:48:16.969Z,100829.89
2023-08-11T23:53:23.958Z,100828.65
2023-08-11T23:58:30.863Z,100827.98
